Hangaard, Minnesota
Current Conditions -  °F | °C
As of 6:15 AM on Sunday 25 Jan 2015 (Local Time) from KFSE Reporting Station
Clear Clear  
Wind Chill: -1°   Ceiling: Unl
Heat Index:   Visibility: 10mi
Dew Point:   Wind: 6mph
Humidity: 85%   Direction: 30°NNE
Pressure: 29.96"   Gusts: NA
Location:  47.8469°N, 95.4815°W
Report Text: KFSE 251215Z AUTO 03005KT 10SM CLR M13/M15 A2996 RMK AO2
Loading
Personal Weather Stations






























Interactive Weather Map New forecast layout! Learn more

10-Day Weather Forecast

Advertisements
Track Severe Weather on mobile